Time;durP1;ratioP1;P1;durP2;ratioP2;P2;SDS_P1;SDS_P2;PMS_P1;PMS_P2;Temp;Humidity;BMP_temperature;BMP_pressure;BME280_temperature;BME280_humidity;BME280_pressure;Samples;Min_cycle;Max_cycle;Signal;HPM_P1;HPM_P2
2023/06/16 00:00:11;;;;;;;11.27;6.80;;;13.40;99.90;;;;;;5072432;28;20221;-74
2023/06/16 00:02:43;;;;;;;7.17;6.47;;;13.40;99.90;;;;;;5072453;28;20196;-74
2023/06/16 00:05:11;;;;;;;8.43;7.00;;;13.30;99.90;;;;;;5072204;28;20193;-74
2023/06/16 00:07:37;;;;;;;8.57;6.87;;;13.00;99.90;;;;;;5072434;28;20201;-74
2023/06/16 00:10:05;;;;;;;7.07;6.37;;;12.90;99.90;;;;;;5077888;28;20208;-74
2023/06/16 00:12:34;;;;;;;7.73;6.97;;;12.70;99.90;;;;;;5079101;28;20197;-74
2023/06/16 00:15:01;;;;;;;7.77;7.07;;;12.70;99.90;;;;;;5078969;28;20207;-74
2023/06/16 00:17:28;;;;;;;7.47;6.77;;;12.70;99.90;;;;;;5079243;28;20197;-74
2023/06/16 00:19:56;;;;;;;8.70;6.63;;;12.70;99.90;;;;;;5079025;28;20260;-74
2023/06/16 00:22:25;;;;;;;7.73;6.80;;;12.60;99.90;;;;;;5078900;28;20672;-75
2023/06/16 00:24:51;;;;;;;7.83;7.13;;;12.50;99.90;;;;;;5079019;28;20200;-75
2023/06/16 00:27:18;;;;;;;7.90;7.20;;;12.60;99.90;;;;;;5078984;28;20200;-74
2023/06/16 00:29:46;;;;;;;8.47;7.27;;;12.60;99.90;;;;;;5078683;28;20201;-74
2023/06/16 00:32:13;;;;;;;9.57;7.60;;;12.40;99.90;;;;;;5078816;28;20730;-74
2023/06/16 00:34:39;;;;;;;8.67;7.77;;;12.20;99.90;;;;;;5079017;28;20201;-74
2023/06/16 00:37:06;;;;;;;10.43;7.67;;;12.10;99.90;;;;;;5078774;28;20193;-74
2023/06/16 00:39:32;;;;;;;8.17;7.43;;;12.00;99.90;;;;;;5078891;28;20630;-74
2023/06/16 00:41:59;;;;;;;9.07;7.80;;;11.90;99.90;;;;;;5078796;28;20200;-74
2023/06/16 00:44:26;;;;;;;9.73;7.23;;;11.80;99.90;;;;;;5079044;28;20362;-74
2023/06/16 00:46:55;;;;;;;8.27;7.30;;;11.80;99.90;;;;;;5078641;28;20726;-74
2023/06/16 00:49:21;;;;;;;8.23;7.30;;;11.90;99.90;;;;;;5078906;28;20274;-74
2023/06/16 00:51:49;;;;;;;9.53;8.03;;;11.80;99.90;;;;;;5078666;28;20201;-74
2023/06/16 00:54:16;;;;;;;9.93;8.33;;;11.80;99.90;;;;;;5078567;28;20612;-74
2023/06/16 00:56:45;;;;;;;9.07;8.10;;;11.70;99.90;;;;;;5078600;28;20624;-73
2023/06/16 00:59:11;;;;;;;10.97;8.67;;;11.50;99.90;;;;;;5078847;28;20204;-74
2023/06/16 01:01:39;;;;;;;9.50;8.60;;;11.50;99.90;;;;;;5078578;28;20254;-74
2023/06/16 01:04:08;;;;;;;11.00;8.10;;;11.40;99.90;;;;;;5078435;28;20656;-74
2023/06/16 01:06:48;;;;;;;9.90;8.20;;;11.30;99.90;;;;;;5078680;28;20230;-74
2023/06/16 01:09:21;;;;;;;10.93;8.80;;;11.30;99.90;;;;;;5078353;28;20289;-74
2023/06/16 01:11:55;;;;;;;9.13;8.10;;;11.30;99.90;;;;;;5078707;28;20200;-74
2023/06/16 01:14:24;;;;;;;14.17;9.33;;;11.40;99.90;;;;;;5078659;28;20192;-73
2023/06/16 01:16:53;;;;;;;11.33;8.57;;;11.30;99.90;;;;;;5078531;28;20258;-74
2023/06/16 01:19:29;;;;;;;10.87;8.33;;;11.30;99.90;;;;;;5078538;28;20204;-74
2023/06/16 01:22:03;;;;;;;9.57;8.57;;;11.30;99.90;;;;;;5074308;28;20200;-73
2023/06/16 01:24:33;;;;;;;11.23;8.80;;;11.60;99.90;;;;;;5075178;28;20604;-74
2023/06/16 01:27:01;;;;;;;9.40;8.50;;;11.50;99.90;;;;;;5074941;28;20223;-74
2023/06/16 01:29:35;;;;;;;11.80;8.03;;;11.40;99.90;;;;;;5075011;28;20610;-74
2023/06/16 01:32:04;;;;;;;10.37;8.13;;;11.30;99.90;;;;;;5074628;28;20208;-73
2023/06/16 01:34:32;;;;;;;10.53;8.33;;;11.20;99.90;;;;;;5075282;28;20197;-74
2023/06/16 01:37:00;;;;;;;9.40;8.10;;;11.10;99.90;;;;;;5075176;28;20212;-74
2023/06/16 01:39:28;;;;;;;9.53;8.57;;;11.00;99.90;;;;;;5074850;28;20587;-74
2023/06/16 01:41:58;;;;;;;9.33;8.40;;;11.10;99.90;;;;;;5075076;28;20201;-74
2023/06/16 01:44:27;;;;;;;9.70;8.70;;;11.10;99.90;;;;;;5074878;28;20197;-74
2023/06/16 01:46:55;;;;;;;9.50;8.60;;;11.00;99.90;;;;;;5074803;28;20205;-74
2023/06/16 01:49:22;;;;;;;9.50;8.57;;;11.00;99.90;;;;;;5074960;28;20692;-74
2023/06/16 01:51:49;;;;;;;10.73;9.07;;;10.90;99.90;;;;;;5074922;28;20266;-74
2023/06/16 01:54:15;;;;;;;10.53;8.93;;;10.90;99.90;;;;;;5074652;28;20229;-74
2023/06/16 01:56:42;;;;;;;10.13;9.10;;;10.80;99.90;;;;;;5074616;28;20193;-73
2023/06/16 01:59:10;;;;;;;9.90;8.97;;;10.70;99.90;;;;;;5074587;28;20334;-73
2023/06/16 02:01:42;;;;;;;10.27;9.37;;;10.60;99.90;;;;;;5074773;28;20625;-74
2023/06/16 02:04:13;;;;;;;10.80;9.50;;;10.50;99.90;;;;;;5074439;28;20726;-74
2023/06/16 02:06:44;;;;;;;14.37;10.37;;;10.40;99.90;;;;;;5074668;28;20200;-73
2023/06/16 02:09:13;;;;;;;11.13;9.33;;;10.40;99.90;;;;;;5074468;28;20217;-74
2023/06/16 02:11:41;;;;;;;11.33;9.67;;;10.30;99.90;;;;;;5074438;28;20254;-74
2023/06/16 02:14:10;;;;;;;11.00;9.93;;;10.30;99.90;;;;;;5074551;28;20197;-74
2023/06/16 02:16:37;;;;;;;13.23;9.77;;;10.20;99.90;;;;;;5074377;28;20197;-73
2023/06/16 02:19:04;;;;;;;11.13;10.13;;;10.10;99.90;;;;;;5074328;28;20204;-73
2023/06/16 02:21:30;;;;;;;12.83;9.97;;;10.10;99.90;;;;;;5074337;28;20557;-74
2023/06/16 02:23:57;;;;;;;11.03;9.93;;;10.00;99.90;;;;;;5074235;28;20197;-74
2023/06/16 02:26:24;;;;;;;11.57;10.33;;;10.10;99.90;;;;;;5074074;28;20247;-73
2023/06/16 02:28:51;;;;;;;12.47;11.10;;;10.10;99.90;;;;;;5074206;28;20189;-74
2023/06/16 02:31:19;;;;;;;12.73;10.60;;;10.00;99.90;;;;;;5073826;28;20656;-74
2023/06/16 02:33:46;;;;;;;12.50;11.20;;;10.00;99.90;;;;;;5074046;28;20220;-74
2023/06/16 02:36:13;;;;;;;12.40;11.17;;;10.00;99.90;;;;;;5073993;28;20201;-74
2023/06/16 02:38:40;;;;;;;12.87;10.50;;;9.90;99.90;;;;;;5073608;28;20197;-74
2023/06/16 02:41:06;;;;;;;14.10;10.53;;;9.90;99.90;;;;;;5073605;28;20213;-74
2023/06/16 02:43:33;;;;;;;12.30;11.00;;;10.20;99.90;;;;;;5073982;28;20197;-74
2023/06/16 02:46:01;;;;;;;12.13;10.83;;;10.20;99.90;;;;;;5073626;28;20656;-74
2023/06/16 02:48:29;;;;;;;11.87;10.50;;;10.10;99.90;;;;;;5073738;28;20664;-74
2023/06/16 02:50:56;;;;;;;13.37;11.20;;;10.10;99.90;;;;;;5073582;28;20225;-74
2023/06/16 02:53:24;;;;;;;12.13;10.83;;;10.00;99.90;;;;;;5073434;28;20233;-74
2023/06/16 02:55:51;;;;;;;14.13;11.57;;;9.90;99.90;;;;;;5073779;28;20588;-74
2023/06/16 02:58:18;;;;;;;13.43;11.73;;;9.80;99.90;;;;;;5073596;28;20235;-73
2023/06/16 03:00:45;;;;;;;13.47;11.57;;;9.80;99.90;;;;;;5073518;28;20201;-74
2023/06/16 03:03:11;;;;;;;11.90;10.77;;;10.00;99.90;;;;;;5073283;28;20208;-74
2023/06/16 03:05:40;;;;;;;12.60;11.20;;;10.10;99.90;;;;;;5073330;28;20201;-74
2023/06/16 03:08:06;;;;;;;12.03;10.93;;;10.10;99.90;;;;;;5073119;28;20247;-74
2023/06/16 03:10:33;;;;;;;11.77;10.60;;;10.40;99.90;;;;;;5073336;28;20634;-73
2023/06/16 03:12:59;;;;;;;12.07;10.77;;;10.50;99.90;;;;;;5073339;28;20251;-73
2023/06/16 03:15:27;;;;;;;11.77;10.67;;;10.30;99.90;;;;;;5073272;28;20242;-74
2023/06/16 03:17:53;;;;;;;12.57;11.20;;;10.40;99.90;;;;;;5073190;28;20287;-74
2023/06/16 03:20:21;;;;;;;13.17;10.47;;;10.20;99.90;;;;;;5073053;28;20247;-74
2023/06/16 03:22:49;;;;;;;11.57;10.47;;;10.10;99.90;;;;;;5072911;28;20671;-73
2023/06/16 03:25:16;;;;;;;11.87;10.67;;;10.00;99.90;;;;;;5073177;28;20284;-74
2023/06/16 03:27:42;;;;;;;10.93;9.83;;;10.00;99.90;;;;;;5072804;28;20225;-73
2023/06/16 03:30:09;;;;;;;11.40;10.23;;;10.20;99.90;;;;;;5072821;28;20220;-73
2023/06/16 03:32:37;;;;;;;10.70;9.70;;;10.40;99.90;;;;;;5072604;28;20553;-73
2023/06/16 03:35:04;;;;;;;10.80;9.67;;;10.50;99.90;;;;;;5072720;28;20549;-73
2023/06/16 03:37:31;;;;;;;10.57;9.53;;;10.30;99.90;;;;;;5072854;28;20204;-73
2023/06/16 03:40:05;;;;;;;11.17;10.07;;;10.10;99.90;;;;;;5072840;28;20258;-73
2023/06/16 03:42:32;;;;;;;11.57;10.40;;;10.00;99.90;;;;;;5072810;28;20204;-73
2023/06/16 03:44:59;;;;;;;12.17;10.70;;;9.90;99.90;;;;;;5072184;28;20197;-73
2023/06/16 03:47:26;;;;;;;14.33;11.57;;;9.90;99.90;;;;;;5072522;28;20254;-73
2023/06/16 03:49:53;;;;;;;15.07;11.17;;;9.90;99.90;;;;;;5072337;28;20225;-73
2023/06/16 03:52:20;;;;;;;13.03;11.70;;;9.90;99.90;;;;;;5072682;28;20201;-73
2023/06/16 03:54:47;;;;;;;12.77;11.23;;;10.00;99.90;;;;;;5072486;28;20225;-73
2023/06/16 03:57:15;;;;;;;13.23;11.83;;;10.00;99.90;;;;;;5072491;28;20197;-73
2023/06/16 03:59:41;;;;;;;14.10;11.87;;;10.10;99.90;;;;;;5072402;28;20734;-73
2023/06/16 04:02:08;;;;;;;15.93;11.87;;;10.10;99.90;;;;;;5072338;28;20660;-73
2023/06/16 04:04:35;;;;;;;13.90;11.07;;;10.20;99.90;;;;;;5072364;28;20250;-73
2023/06/16 04:07:04;;;;;;;12.47;10.97;;;10.20;99.90;;;;;;5072535;28;20231;-72
2023/06/16 04:09:31;;;;;;;12.90;11.43;;;10.20;99.90;;;;;;5072575;28;20604;-73
2023/06/16 04:11:57;;;;;;;13.07;11.27;;;10.30;99.90;;;;;;5072482;28;20196;-73
2023/06/16 04:14:25;;;;;;;12.50;10.97;;;10.30;99.90;;;;;;5072371;28;20193;-73
2023/06/16 04:16:52;;;;;;;12.60;11.07;;;10.30;99.90;;;;;;5072215;28;20197;-73
2023/06/16 04:19:19;;;;;;;13.07;11.70;;;10.40;99.90;;;;;;5072423;28;20204;-73
2023/06/16 04:21:46;;;;;;;13.37;11.50;;;10.40;99.90;;;;;;5072466;28;20201;-73
2023/06/16 04:24:14;;;;;;;12.97;11.67;;;10.50;99.90;;;;;;5072272;28;20226;-73
2023/06/16 04:26:41;;;;;;;13.47;11.47;;;10.60;99.90;;;;;;5072068;28;20278;-73
2023/06/16 04:29:08;;;;;;;11.87;10.73;;;10.70;99.90;;;;;;5072056;28;20240;-73
2023/06/16 04:31:37;;;;;;;12.27;10.83;;;11.00;99.90;;;;;;5072235;28;20278;-73
2023/06/16 04:34:04;;;;;;;13.57;10.83;;;11.20;99.90;;;;;;5072369;28;20200;-73
2023/06/16 04:36:30;;;;;;;11.23;10.03;;;11.30;99.90;;;;;;5072163;28;20197;-73
2023/06/16 04:38:57;;;;;;;14.47;10.90;;;11.40;99.90;;;;;;5072504;28;20197;-74
2023/06/16 04:41:24;;;;;;;11.33;10.20;;;11.50;99.90;;;;;;5072113;28;20205;-73
2023/06/16 04:43:51;;;;;;;13.67;11.27;;;11.60;99.90;;;;;;5072106;28;20197;-73
2023/06/16 04:46:18;;;;;;;15.23;10.97;;;11.50;99.90;;;;;;5072233;28;20199;-73
2023/06/16 04:48:46;;;;;;;11.33;10.23;;;11.60;99.90;;;;;;5072195;28;20204;-73
2023/06/16 04:51:13;;;;;;;11.97;9.93;;;11.60;99.90;;;;;;5072011;28;20220;-73
2023/06/16 04:53:39;;;;;;;16.80;10.87;;;11.60;99.90;;;;;;5071862;28;20277;-73
2023/06/16 04:56:06;;;;;;;11.20;10.00;;;11.80;99.90;;;;;;5073144;28;20266;-74
2023/06/16 04:58:32;;;;;;;12.93;10.37;;;11.80;99.90;;;;;;5075548;28;20711;-73
2023/06/16 05:00:59;;;;;;;11.87;10.77;;;11.90;99.90;;;;;;5075804;28;20201;-73
2023/06/16 05:03:26;;;;;;;12.33;11.03;;;12.00;99.90;;;;;;5075732;28;20208;-73
2023/06/16 05:05:54;;;;;;;12.33;11.03;;;12.10;99.90;;;;;;5075633;28;20197;-73
2023/06/16 05:08:20;;;;;;;13.10;11.37;;;12.20;99.90;;;;;;5075421;28;20254;-73
2023/06/16 05:10:47;;;;;;;11.30;10.20;;;12.30;99.90;;;;;;5075244;28;20225;-73
2023/06/16 05:13:14;;;;;;;16.73;10.67;;;12.50;99.90;;;;;;5075329;28;20197;-74
2023/06/16 05:15:40;;;;;;;12.13;10.47;;;12.70;99.90;;;;;;5075557;28;20201;-73
2023/06/16 05:18:07;;;;;;;13.17;10.77;;;12.80;99.90;;;;;;5075336;28;20326;-73
2023/06/16 05:20:33;;;;;;;12.03;10.10;;;12.90;99.90;;;;;;5075245;28;20247;-73
2023/06/16 05:23:03;;;;;;;13.77;10.27;;;13.10;99.90;;;;;;5075334;28;20201;-73
2023/06/16 05:25:30;;;;;;;13.67;10.20;;;13.10;99.90;;;;;;5074942;28;20201;-73
2023/06/16 05:27:56;;;;;;;16.30;10.57;;;13.20;99.90;;;;;;5075255;28;20255;-73
2023/06/16 05:30:23;;;;;;;11.70;10.50;;;13.30;99.90;;;;;;5075200;28;20271;-73
2023/06/16 05:32:50;;;;;;;11.10;10.00;;;13.40;99.90;;;;;;5075072;28;20263;-73
2023/06/16 05:35:16;;;;;;;11.47;10.23;;;13.60;99.90;;;;;;5074993;28;20213;-73
2023/06/16 05:37:43;;;;;;;12.27;10.57;;;13.70;99.90;;;;;;5074806;28;20247;-73
2023/06/16 05:40:11;;;;;;;12.50;10.30;;;13.80;99.90;;;;;;5074589;28;20201;-73
2023/06/16 05:42:38;;;;;;;12.17;10.40;;;13.80;99.90;;;;;;5074877;28;20201;-73
2023/06/16 05:45:06;;;;;;;11.57;10.23;;;14.00;99.90;;;;;;5074997;28;20599;-74
2023/06/16 05:47:32;;;;;;;12.40;10.13;;;14.10;99.90;;;;;;5074754;28;20205;-74
2023/06/16 05:50:00;;;;;;;11.80;10.17;;;14.20;99.90;;;;;;5074311;28;20270;-74
2023/06/16 05:52:26;;;;;;;11.60;9.60;;;14.20;99.90;;;;;;5074641;28;20213;-74
2023/06/16 05:54:53;;;;;;;17.23;11.20;;;14.20;99.90;;;;;;5074513;28;20597;-74
2023/06/16 05:57:22;;;;;;;12.17;9.50;;;14.40;99.90;;;;;;5074801;28;20215;-73
2023/06/16 05:59:49;;;;;;;12.07;10.33;;;14.60;99.90;;;;;;5074798;28;20201;-74
2023/06/16 06:02:17;;;;;;;11.30;9.93;;;14.60;99.90;;;;;;5074528;28;20201;-74
2023/06/16 06:04:43;;;;;;;10.60;9.50;;;14.80;99.90;;;;;;5074643;28;20221;-73
2023/06/16 06:07:10;;;;;;;11.03;9.63;;;15.00;99.90;;;;;;5074099;28;20193;-73
2023/06/16 06:09:36;;;;;;;12.37;9.40;;;15.10;99.90;;;;;;5074729;28;20262;-73
2023/06/16 06:12:03;;;;;;;10.60;9.27;;;15.20;99.90;;;;;;5074306;28;20220;-73
2023/06/16 06:14:31;;;;;;;13.10;9.20;;;15.40;99.90;;;;;;5074511;28;20197;-74
2023/06/16 06:16:58;;;;;;;12.03;9.43;;;15.50;99.90;;;;;;5074330;28;20250;-74
2023/06/16 06:19:24;;;;;;;10.60;9.50;;;15.70;99.90;;;;;;5074209;28;20196;-74
2023/06/16 06:21:51;;;;;;;11.20;9.20;;;15.80;99.90;;;;;;5074482;28;20204;-73
2023/06/16 06:24:20;;;;;;;10.93;8.97;;;16.00;99.90;;;;;;5074240;28;20600;-73
2023/06/16 06:26:46;;;;;;;12.52;8.90;;;16.20;99.90;;;;;;5074975;28;20270;-73
2023/06/16 06:29:14;;;;;;;10.88;7.80;;;16.30;99.90;;;;;;5086092;28;20228;-74
2023/06/16 06:31:42;;;;;;;10.07;7.25;;;16.50;99.90;;;;;;5075189;28;20256;-74
2023/06/16 06:34:08;;;;;;;6.95;6.25;;;16.60;99.90;;;;;;5073872;28;20250;-73
2023/06/16 06:36:37;;;;;;;9.70;6.55;;;16.80;99.90;;;;;;5073908;28;20537;-75
2023/06/16 06:39:03;;;;;;;11.77;6.40;;;17.00;99.90;;;;;;5074549;28;20197;-75
2023/06/16 06:41:30;;;;;;;7.18;6.38;;;17.30;99.90;;;;;;5074257;28;20197;-75
2023/06/16 06:43:57;;;;;;;9.45;6.40;;;17.40;99.90;;;;;;5073989;28;20201;-74
2023/06/16 06:46:23;;;;;;;7.65;6.25;;;17.40;99.90;;;;;;5073863;28;20219;-75
2023/06/16 06:48:51;;;;;;;12.45;5.97;;;17.60;99.90;;;;;;5073636;28;20204;-75
2023/06/16 06:51:18;;;;;;;7.20;6.45;;;17.60;99.90;;;;;;5073653;28;20229;-75
2023/06/16 06:53:44;;;;;;;10.25;6.93;;;17.40;99.90;;;;;;5073645;28;20229;-74
2023/06/16 06:56:11;;;;;;;8.52;7.07;;;17.20;99.90;;;;;;5073662;28;20197;-75
2023/06/16 06:58:38;;;;;;;8.57;6.75;;;17.10;99.90;;;;;;5073557;28;20197;-75
2023/06/16 07:01:05;;;;;;;9.65;6.68;;;17.00;99.90;;;;;;5075397;28;20205;-75
2023/06/16 07:03:32;;;;;;;8.07;6.65;;;17.10;99.90;;;;;;5067581;28;20197;-75
2023/06/16 07:06:00;;;;;;;8.35;6.85;;;17.10;99.90;;;;;;5053186;28;20201;-74
2023/06/16 07:08:26;;;;;;;7.65;6.85;;;17.30;99.90;;;;;;5052669;28;20546;-74
2023/06/16 07:10:53;;;;;;;8.40;7.07;;;17.50;99.90;;;;;;5052979;28;20221;-74
2023/06/16 07:13:20;;;;;;;8.15;6.80;;;17.70;99.90;;;;;;5053113;28;20267;-74
2023/06/16 07:15:46;;;;;;;8.30;6.20;;;17.80;99.90;;;;;;5080899;28;20265;-74
2023/06/16 07:18:13;;;;;;;9.10;7.60;;;17.90;99.90;;;;;;5092536;28;20225;-74
2023/06/16 07:20:40;;;;;;;8.02;7.00;;;17.90;99.90;;;;;;5093107;28;20205;-74
2023/06/16 07:23:08;;;;;;;9.02;7.15;;;17.90;99.90;;;;;;5092983;28;20656;-74
2023/06/16 07:25:36;;;;;;;8.32;6.70;;;17.90;99.90;;;;;;5093147;28;20188;-74
2023/06/16 07:28:03;;;;;;;9.23;6.75;;;17.80;99.90;;;;;;5093207;28;20207;-74
2023/06/16 07:30:30;;;;;;;7.45;6.75;;;18.00;99.90;;;;;;5092571;28;20232;-74
2023/06/16 07:32:57;;;;;;;8.95;6.53;;;18.00;99.90;;;;;;5093253;28;20208;-74
2023/06/16 07:35:24;;;;;;;7.72;6.63;;;18.10;99.90;;;;;;5092721;28;20200;-73
2023/06/16 07:37:51;;;;;;;8.45;7.10;;;18.20;99.90;;;;;;5093041;28;20556;-74
2023/06/16 07:40:19;;;;;;;8.38;6.55;;;18.30;99.90;;;;;;5092926;28;20599;-74
2023/06/16 07:42:45;;;;;;;6.68;6.07;;;18.30;99.90;;;;;;5092760;28;20200;-74
2023/06/16 07:45:12;;;;;;;6.43;5.82;;;18.70;99.90;;;;;;5092813;28;20197;-74
2023/06/16 07:47:39;;;;;;;11.43;6.72;;;19.10;99.00;;;;;;5093119;28;20196;-75
2023/06/16 07:50:07;;;;;;;6.78;6.15;;;19.40;97.70;;;;;;5092863;28;20663;-74
2023/06/16 07:52:35;;;;;;;9.35;6.00;;;19.90;95.90;;;;;;5092796;28;20280;-74
2023/06/16 07:55:01;;;;;;;10.13;6.68;;;20.00;94.30;;;;;;5092516;28;20311;-74
2023/06/16 07:57:29;;;;;;;6.63;6.00;;;20.10;93.30;;;;;;5092778;28;20209;-74
2023/06/16 07:59:56;;;;;;;6.95;5.85;;;20.00;92.50;;;;;;5092568;28;20242;-74
2023/06/16 08:02:23;;;;;;;6.57;5.95;;;20.40;92.30;;;;;;5092871;28;20227;-75
2023/06/16 08:04:50;;;;;;;9.35;5.90;;;20.90;91.30;;;;;;5092697;28;20224;-73
2023/06/16 08:07:16;;;;;;;8.02;5.68;;;21.10;90.00;;;;;;5092682;28;20258;-72
2023/06/16 08:09:43;;;;;;;6.15;5.55;;;21.40;88.00;;;;;;5092632;28;20267;-74
2023/06/16 08:12:10;;;;;;;7.68;6.13;;;21.50;85.90;;;;;;5092325;28;20220;-73
2023/06/16 08:14:38;;;;;;;12.07;6.35;;;21.50;85.20;;;;;;5092854;28;20249;-74
2023/06/16 08:17:05;;;;;;;7.45;6.13;;;21.10;83.20;;;;;;5092790;28;20234;-79
2023/06/16 08:19:32;;;;;;;6.40;5.60;;;21.30;85.30;;;;;;5092486;28;20690;-78
2023/06/16 08:22:00;;;;;;;7.30;5.95;;;21.70;82.20;;;;;;5092437;28;20196;-78
2023/06/16 08:24:26;;;;;;;6.38;5.45;;;21.80;81.00;;;;;;5092611;28;20242;-78
2023/06/16 08:26:53;;;;;;;7.88;5.68;;;22.10;77.90;;;;;;5092373;28;20234;-73
2023/06/16 08:29:20;;;;;;;7.90;5.70;;;22.40;77.30;;;;;;5092657;28;20197;-73
2023/06/16 08:31:48;;;;;;;6.25;5.65;;;22.60;73.50;;;;;;5096560;28;20224;-73
2023/06/16 08:34:14;;;;;;;6.50;5.53;;;22.40;71.80;;;;;;5096459;28;20196;-73
2023/06/16 08:36:41;;;;;;;10.38;5.95;;;21.90;70.40;;;;;;5096491;28;20197;-73
2023/06/16 08:39:09;;;;;;;8.20;5.88;;;21.80;71.30;;;;;;5096319;28;20200;-73
2023/06/16 08:41:37;;;;;;;7.78;5.80;;;21.90;70.60;;;;;;5095882;28;20208;-73
2023/06/16 08:44:07;;;;;;;10.52;6.05;;;21.90;69.80;;;;;;5096677;28;20193;-73
2023/06/16 08:46:34;;;;;;;6.18;5.57;;;22.30;68.30;;;;;;5096452;28;20200;-73
2023/06/16 08:49:03;;;;;;;12.13;6.03;;;22.50;67.30;;;;;;5096395;28;20644;-73
2023/06/16 08:51:33;;;;;;;8.38;5.80;;;22.40;67.00;;;;;;5096317;28;20289;-73
2023/06/16 08:54:01;;;;;;;7.15;5.38;;;22.60;65.60;;;;;;5095995;28;20232;-74
2023/06/16 08:56:31;;;;;;;6.65;5.20;;;22.70;62.80;;;;;;5096229;28;20200;-73
2023/06/16 08:59:01;;;;;;;6.75;5.28;;;22.50;59.20;;;;;;5096196;28;20230;-73
2023/06/16 09:01:28;;;;;;;7.53;5.60;;;22.50;58.00;;;;;;5096044;28;20265;-73
2023/06/16 09:03:55;;;;;;;8.65;5.25;;;22.60;57.30;;;;;;5095861;28;20206;-73
2023/06/16 09:06:25;;;;;;;6.43;5.53;;;22.80;57.70;;;;;;5095898;28;20205;-73
2023/06/16 09:08:52;;;;;;;8.80;5.53;;;22.80;54.80;;;;;;5095918;28;20192;-73
2023/06/16 09:11:23;;;;;;;6.05;5.13;;;23.00;55.20;;;;;;5095723;28;20631;-73
2023/06/16 09:13:51;;;;;;;5.63;5.10;;;22.80;54.10;;;;;;5095621;28;20652;-72
2023/06/16 09:16:19;;;;;;;8.68;5.22;;;23.10;53.00;;;;;;5095749;28;20223;-73
2023/06/16 09:18:47;;;;;;;6.88;5.38;;;23.20;52.50;;;;;;5095528;28;20201;-73
2023/06/16 09:21:18;;;;;;;5.68;5.18;;;22.90;52.50;;;;;;5095801;28;20556;-73
2023/06/16 09:23:47;;;;;;;8.15;5.38;;;23.00;51.50;;;;;;5095824;28;20240;-73
2023/06/16 09:26:14;;;;;;;6.38;5.20;;;23.10;50.90;;;;;;5095661;28;20283;-73
2023/06/16 09:28:41;;;;;;;12.02;5.38;;;23.10;50.70;;;;;;5095733;28;20253;-73
2023/06/16 09:31:11;;;;;;;6.57;4.75;;;23.90;50.50;;;;;;5095495;28;20199;-73
2023/06/16 09:33:37;;;;;;;8.68;4.70;;;24.00;49.50;;;;;;5095853;28;20193;-73
2023/06/16 09:36:04;;;;;;;7.65;5.30;;;23.90;49.10;;;;;;5095620;28;20222;-73
2023/06/16 09:38:37;;;;;;;14.48;5.80;;;23.90;49.40;;;;;;5095450;28;20197;-73
2023/06/16 09:41:15;;;;;;;9.65;5.10;;;23.80;47.90;;;;;;5094660;28;20269;-73
2023/06/16 09:43:43;;;;;;;9.55;4.93;;;23.20;47.50;;;;;;5094889;28;20211;-72
2023/06/16 09:46:12;;;;;;;10.07;5.60;;;23.20;48.20;;;;;;5094954;28;20258;-73
2023/06/16 09:48:46;;;;;;;13.40;6.20;;;23.20;47.70;;;;;;5094939;28;20668;-72
2023/06/16 09:51:15;;;;;;;9.70;5.07;;;23.40;47.50;;;;;;5095044;28;20200;-73
2023/06/16 09:53:43;;;;;;;7.03;5.38;;;23.50;47.70;;;;;;5094812;28;20281;-76
2023/06/16 09:56:12;;;;;;;6.55;5.10;;;23.70;47.50;;;;;;5095002;28;20265;-75
2023/06/16 09:58:39;;;;;;;7.30;5.70;;;23.70;46.80;;;;;;5095095;28;20591;-75
2023/06/16 10:01:06;;;;;;;5.80;5.30;;;24.20;46.30;;;;;;5094841;28;20644;-74
2023/06/16 10:03:34;;;;;;;6.93;4.95;;;24.00;45.80;;;;;;5094873;28;20234;-74
2023/06/16 10:06:05;;;;;;;7.15;5.03;;;23.60;46.80;;;;;;5094769;28;20671;-75
2023/06/16 10:08:32;;;;;;;6.20;5.30;;;23.80;46.40;;;;;;5094738;28;20192;-75
2023/06/16 10:10:59;;;;;;;10.13;5.35;;;24.60;45.80;;;;;;5094577;28;20204;-74
2023/06/16 10:13:28;;;;;;;7.95;5.53;;;25.10;45.10;;;;;;5094601;28;20228;-75
2023/06/16 10:15:57;;;;;;;7.15;4.80;;;24.30;44.50;;;;;;5094488;28;20651;-74
2023/06/16 10:18:25;;;;;;;6.88;4.78;;;24.30;43.90;;;;;;5094311;28;20655;-75
2023/06/16 10:20:52;;;;;;;5.85;4.85;;;24.60;43.70;;;;;;5094287;28;20265;-75
2023/06/16 10:23:19;;;;;;;8.60;4.90;;;24.60;43.60;;;;;;5094242;28;20200;-75
2023/06/16 10:25:46;;;;;;;7.10;5.25;;;24.70;43.00;;;;;;5094475;28;20218;-75
2023/06/16 10:28:14;;;;;;;9.18;4.70;;;25.40;42.50;;;;;;5094223;28;20197;-76
2023/06/16 10:30:44;;;;;;;5.97;4.82;;;25.60;42.10;;;;;;5094261;28;20204;-75
2023/06/16 10:33:17;;;;;;;6.97;5.25;;;25.30;41.70;;;;;;5094259;28;20573;-75
2023/06/16 10:35:50;;;;;;;9.45;5.18;;;25.50;41.70;;;;;;5094122;28;20232;-75
2023/06/16 10:38:17;;;;;;;6.00;4.88;;;26.10;41.40;;;;;;5093991;28;20219;-75
2023/06/16 10:40:44;;;;;;;7.28;4.97;;;26.50;39.60;;;;;;5094207;28;20197;-75
2023/06/16 10:43:24;;;;;;;7.53;4.90;;;25.80;39.60;;;;;;5094132;28;20560;-78
2023/06/16 10:46:12;;;;;;;8.02;4.68;;;26.50;39.10;;;;;;5093804;28;20196;-79
2023/06/16 10:49:10;;;;;;;5.38;4.88;;;26.40;38.50;;;;;;5093946;28;20196;-79
2023/06/16 10:51:41;;;;;;;6.40;4.78;;;27.40;37.50;;;;;;5093773;28;20273;-78
2023/06/16 10:54:08;;;;;;;6.35;5.07;;;27.40;36.40;;;;;;5088263;28;20579;-79
2023/06/16 10:57:01;;;;;;;9.27;4.90;;;26.80;37.20;;;;;;5073379;28;20196;-78
2023/06/16 10:59:28;;;;;;;7.45;4.70;;;26.50;36.30;;;;;;5073467;28;20201;-79
2023/06/16 11:01:58;;;;;;;8.13;5.30;;;25.70;37.30;;;;;;5073530;28;20565;-79
2023/06/16 11:04:25;;;;;;;6.10;5.30;;;26.20;37.10;;;;;;5073290;28;20201;-78
2023/06/16 11:07:09;;;;;;;8.00;5.47;;;26.60;35.70;;;;;;5073158;28;20232;-79
2023/06/16 11:09:36;;;;;;;5.80;5.13;;;26.60;36.90;;;;;;5073202;28;20279;-76
2023/06/16 11:12:03;;;;;;;5.63;5.13;;;25.40;36.70;;;;;;5073431;28;20225;-75
2023/06/16 11:14:30;;;;;;;5.78;5.15;;;26.10;37.20;;;;;;5073329;28;20197;-81
2023/06/16 11:16:59;;;;;;;5.68;5.18;;;26.40;36.80;;;;;;5073330;28;20694;-76
2023/06/16 11:19:26;;;;;;;8.13;5.00;;;26.40;35.60;;;;;;5073007;28;20198;-75
2023/06/16 11:21:53;;;;;;;6.88;4.68;;;26.40;35.70;;;;;;5073035;28;20250;-77
2023/06/16 11:24:19;;;;;;;5.60;5.07;;;26.90;34.90;;;;;;5073200;28;20201;-76
2023/06/16 11:26:46;;;;;;;7.30;4.90;;;26.20;35.80;;;;;;5072859;28;20644;-77
2023/06/16 11:29:15;;;;;;;9.77;5.22;;;26.90;35.10;;;;;;5073075;28;20193;-76
2023/06/16 11:31:41;;;;;;;5.28;4.70;;;27.60;33.70;;;;;;5072722;28;20207;-75
2023/06/16 11:34:10;;;;;;;9.38;4.70;;;29.00;33.20;;;;;;5072816;28;20201;-76
2023/06/16 11:36:36;;;;;;;5.72;4.70;;;29.70;30.70;;;;;;5072684;28;20208;-76
2023/06/16 11:39:11;;;;;;;4.88;4.38;;;29.30;29.30;;;;;;5072613;28;20664;-78
2023/06/16 11:41:38;;;;;;;5.53;4.63;;;28.80;29.30;;;;;;5072786;28;20689;-75
2023/06/16 11:44:04;;;;;;;9.65;4.78;;;28.60;28.50;;;;;;5072585;28;20722;-75
2023/06/16 11:46:33;;;;;;;6.82;4.72;;;28.50;29.20;;;;;;5072633;28;20607;-75
2023/06/16 11:49:02;;;;;;;6.45;4.50;;;27.90;29.40;;;;;;5072631;28;20233;-74
2023/06/16 11:51:30;;;;;;;6.43;4.72;;;28.20;29.10;;;;;;5072599;28;20665;-73
2023/06/16 11:53:58;;;;;;;4.63;4.22;;;28.30;29.50;;;;;;5072420;28;20243;-74
2023/06/16 11:56:26;;;;;;;6.25;4.75;;;28.60;29.20;;;;;;5072464;28;20262;-74
2023/06/16 11:58:53;;;;;;;5.07;4.50;;;28.30;28.70;;;;;;5072382;28;20652;-74
2023/06/16 12:01:20;;;;;;;4.32;3.92;;;27.80;30.00;;;;;;5072106;28;20196;-74
2023/06/16 12:03:47;;;;;;;3.72;3.42;;;27.50;29.60;;;;;;5072412;28;20196;-74
2023/06/16 12:06:14;;;;;;;4.20;3.78;;;26.90;29.60;;;;;;5071832;28;20663;-73
2023/06/16 12:08:44;;;;;;;4.55;3.50;;;28.00;28.80;;;;;;5072420;28;20560;-80
2023/06/16 12:11:17;;;;;;;4.15;3.50;;;28.90;27.20;;;;;;5072598;28;20254;-74
2023/06/16 12:13:44;;;;;;;8.52;3.70;;;29.80;26.60;;;;;;5072661;28;20221;-74
2023/06/16 12:16:13;;;;;;;8.27;4.20;;;29.00;27.30;;;;;;5072220;28;20688;-75
2023/06/16 12:18:39;;;;;;;4.95;4.30;;;28.10;28.60;;;;;;5072497;28;20201;-75
2023/06/16 12:21:16;;;;;;;6.20;4.13;;;26.90;29.30;;;;;;5072416;28;20197;-74
2023/06/16 12:23:51;;;;;;;4.93;4.30;;;26.60;30.40;;;;;;5072450;28;20259;-75
2023/06/16 12:26:30;;;;;;;5.40;4.15;;;25.70;31.90;;;;;;5072114;28;20294;-75
2023/06/16 12:28:58;;;;;;;6.85;4.57;;;26.90;32.00;;;;;;5072488;28;20223;-76
2023/06/16 12:31:28;;;;;;;4.97;3.70;;;26.20;31.40;;;;;;5072381;28;20201;-75
2023/06/16 12:33:55;;;;;;;4.20;3.80;;;26.30;31.10;;;;;;5072256;28;20224;-74
2023/06/16 12:36:22;;;;;;;6.22;4.00;;;25.80;31.70;;;;;;5072088;28;20219;-76
2023/06/16 12:38:52;;;;;;;4.60;4.20;;;26.30;31.30;;;;;;5072199;28;20203;-76
2023/06/16 12:41:19;;;;;;;7.00;4.70;;;25.60;32.70;;;;;;5072385;28;20530;-75
2023/06/16 12:43:49;;;;;;;6.75;4.63;;;25.10;34.10;;;;;;5072337;28;20254;-77